Texas Shootout - HAND INVENTORY

Station: HAND INVENTORY - T Race

Distance: 1 Miles

Release: 10-Jul-2017 07:30

Weather Release:    Arrival:

Wind at Release:     Wind at Arrival:

Temp at Release: °    Temp at Arrival: °

Lofts: 162

Birds: 1023

Clocked: 984

Good Luck to Everyone!
Drops Pos Breeder Pigeon Name Color Sex Ent Arrival Speed To Win Eligible
101 Scorpion Loft - TX 14718-MX17-CNU BB H 1 08:27:35.81 30.557 00:22:41 Yes
102 Perfection Loft - KS 3739-AU17-AA BBWF C 2 08:27:46.11 30.466 00:22:52 Yes
103 Tepa - TX 0254-AU17-DEN BC C 1 08:28:00.59 30.340 00:23:06 Yes
104 West Wing Syndicate - TX 30470-AU17-JEDD BB H 1 08:28:10.38 30.255 00:23:16 Yes
105 Holleys Silver Star - TX 0945-AU17-DEN BB H 1 08:28:22.77 30.148 00:23:28 Yes
106 Bill Kluge - TX 1728-AU17-COLD BB H 2 08:28:33.69 30.054 00:23:39 Yes
107 L & L Loft - AL 17035-AU17-LL BC H 2 08:28:43.75 29.968 00:23:49 Yes
108 Racing Pigeon Mall - WA 0708-AU17-RPM BLK C 1 08:29:06.06 29.780 00:24:11 Yes
109 Bill Traw - TX 1275-AU17-GHC BC C 1 08:29:23.81 29.631 00:24:29 Yes
110 Ed Minvielle - LA 17274-AU17-A BB C 1 08:29:30.00 29.580 00:24:35 Yes
111 Barry Venn - WY 1978-AU17-VENN BB H 1 08:29:43.77 29.466 00:24:49 Yes
112 Utaz Team - UT 0825-AU17-PSC BCWF H 2 08:29:44.91 29.457 00:24:50 Yes
113 Elton Dinga - TX 12115-AU17-AA BB C 10 08:30:07.33 29.274 00:25:13 Yes
114 Hollywood Honey - CA 0087-AU17-SD BB H 1 08:30:19.36 29.176 00:25:25 Yes
115 Duane Gragg - CA 0933-AU17-AUB BB C 2 08:30:27.11 29.114 00:25:33 Yes
116 Sky King Loft - TX 16905-AU17-QS BC H 1 08:30:48.80 28.941 00:25:54 Yes
117 H & H Loft - TX 6958-AU17-VK BB H 5 08:30:51.36 28.921 00:25:57 Yes
118 Flying D / Matt Mitchell - TX 0192-AU17-FLYD BB H 1 08:31:05.99 28.805 00:26:11 Yes
119 Elton Dinga - TX 12110-AU17-AA BC H 11 08:31:21.61 28.683 00:26:27 Yes
120 Crestview Loft - TX 1320-AU17-CVL BB H 1 08:31:23.64 28.667 00:26:29 Yes
121 Bill Traw - TX 1279-AU17-GHC BB H 2 08:31:46.14 28.493 00:26:52 Yes
122 ! ! ! S P E E D S - R A C E R S ! ! ! - FL 2700-AU17-SCHE BB H 1 08:31:53.56 28.436 00:26:59 Yes
123 Bill Wisdom - TX 0314-AU17-DEN BB H 2 08:32:13.14 28.287 00:27:19 Yes
124 Quest Syndicate/Any Given Day Loft - TX 17099-AU17-AGD BB C 2 08:32:18.95 28.243 00:27:24 Yes
125 Hines Family Loft - SD 7066-AU17-GPF RC C 1 08:32:35.63 28.118 00:27:41 Yes
126 Little Reata Loft - TX 17332-AU17-JETT BC C 1 08:32:36.92 28.108 00:27:42 Yes
127 C B S & Big Mike - OK 1058-AU17-CBS BB H 2 08:32:58.80 27.945 00:28:04 Yes
128 Spirit In The Sky - IL 0366-AU17-LCC BBWF C 1 08:33:07.09 27.884 00:28:13 Yes
129 Jokers Wild - CA 0331-AU17-JOKE H 2 08:33:27.47 27.735 00:28:33 Yes
130 Tepa - TX 0290-AU17-DEN BB C 2 08:33:40.84 27.638 00:28:46 Yes
131 Shallow Pockets - TX 0075-AU17-SHAL BB H 2 08:33:55.08 27.535 00:29:01 Yes
132 Tex-Mex Loft - TX 0645-AU17-NSL BLSP H 4 08:33:56.56 27.525 00:29:02 Yes
133 Flying D / Matt Mitchell - TX 0129-AU17-FLYD DCWF C 2 08:34:17.75 27.373 00:29:23 Yes
134 Armando & Rameriz Loft - TX 0168-AU17-DAL BB C 1 08:34:19.28 27.363 00:29:25 Yes
135 Flying D Diva - TX 0175-AU17-FLYD BB H 1 08:34:45.91 27.175 00:29:51 Yes
136 Medina Loft - TX 0171-AU17-MDNA BC H 2 08:34:47.58 27.163 00:29:53 Yes
137 Crestview Loft - TX 1332-AU17-CVL BB H 2 08:35:41.36 26.793 00:30:47 Yes
138 Hines Family Loft - SD 7053-AU17-GPF BSPL C 2 08:35:47.97 26.748 00:30:53 Yes
139 Utaz Team - UT 0965-AU17-PSC BBWF C 3 08:36:05.13 26.632 00:31:11 Yes
140 Richard Callahan - MO 1673-AU17-AA BC H 2 08:36:19.61 26.535 00:31:25 Yes
141 Tex-Mex Loft - TX 0612-AU17-NSL BBWF C 5 08:36:24.20 26.505 00:31:30 Yes
142 Gossett & Son - TX 1007-AU17-WF BBWF H 1 08:36:35.94 26.427 00:31:41 Yes
143 Neighbor Hood Bullies - TX 0761-AU17-WF BB H 3 08:36:47.59 26.350 00:31:53 Yes
144 Franco Loft - TX 0733-AU17-DEN BBWF C 2 08:36:53.03 26.314 00:31:59 Yes
145 Ecker/Murphy Syndicate - PA 2387-IF17-CVR BWFP H 1 08:37:12.92 26.185 00:32:18 Yes
146 Elton Dinga - TX 12091-AU17-AA DC C 12 08:37:21.36 26.130 00:32:27 Yes
147 Ed Minvielle - LA 17245-AU17-A BC H 2 08:37:37.34 26.027 00:32:43 Yes
148 Kim Wong - VT 10879-AU17-ARPU BC H 2 08:37:40.94 26.004 00:32:46 Yes
149 Elton Dinga - TX 12073-AU17-AA BB C 13 08:38:01.92 25.870 00:33:07 Yes
150 Neighbor Hood Bullies - TX 0170-AU17-WF BB H 4 08:38:02.97 25.864 00:33:08 Yes
151 Shiloft - PA 5090-IF17-ERIE BB H 2 08:38:22.66 25.739 00:33:28 Yes
152 Tex-Mex Loft - TX 0675-AU17-NSL BB C 6 08:38:24.52 25.728 00:33:30 Yes
153 Nesneb Racing Loft - AL 17119-AU17-MOB BB H 2 08:38:48.78 25.577 00:33:54 Yes
154 480 Volt Loft - TX 34100-AU17-AA DWFP H 1 08:38:49.83 25.570 00:33:55 Yes
155 Champ Camp - IN 0205-AU17-CHMP BBWF H 3 08:39:15.72 25.411 00:34:21 Yes
156 L & L Loft - AL 0049-AU17-LL BB H 3 08:39:23.44 25.364 00:34:29 Yes
157 Cuba Loft 2 - TX 36159-AU17-ARPU BC C 2 08:39:38.59 25.272 00:34:44 Yes
158 Lazy P Loft - TX 0043-IF17-RLPC BB H 3 08:39:54.02 25.179 00:34:59 Yes
159 Duffy's Loft - TX 9794-AU17-FOYS BC H 3 08:40:13.61 25.062 00:35:19 Yes
160 Elton Dinga - TX 12088-AU17-AA BC H 14 08:40:14.91 25.054 00:35:20 Yes
161 Espo Loft - SC 0965-AU17-ESPO BB H 1 08:40:43.94 24.883 00:35:49 Yes
162 O & L De Vries - ON 2441-AU17-OL BC C 1 08:40:52.22 24.834 00:35:58 Yes
163 Floating Feather Loft - TX 1344-AU17-CVL BBWF H 1 08:41:06.45 24.751 00:36:12 Yes
164 Two-Be-Won - NV 17183-AU17-TBW BC H 1 08:41:07.64 24.744 00:36:13 Yes
165 Band Of Brothers - TX 0760-AU17-HOOK BC H 1 08:41:35.95 24.581 00:36:41 Yes
166 A P C Loft - TX 17311-AU17-APC GRIZ H 3 08:41:43.56 24.538 00:36:49 Yes
167 Elton Dinga - TX 12128-AU17-AA BB C 15 08:42:03.42 24.425 00:37:09 Yes
168 Larry Payne - KS 0277-AU17-LPL BPWF C 2 08:42:04.74 24.418 00:37:10 Yes
169 Loft By Augustine - KS 7365-AU17-SWK BWFP H 1 08:42:26.34 24.296 00:37:32 Yes
170 Southern Belle - GA 0045-AU17-NEA DCWF H 1 08:42:37.14 24.236 00:37:43 Yes
171 Zheng Loft - FL 8895-AU17-ZHEN BBWF H 1 08:42:52.03 24.154 00:37:57 Yes
172 Bill Traw - TX 1280-AU17-GHC BB C 3 08:43:00.63 24.106 00:38:06 Yes
173 Racine - WI 0597-AU17-RAC BB H 2 08:43:19.47 24.003 00:38:25 Yes
174 Bill Kluge - TX 1772-AU17-COLD BB H 3 08:43:23.69 23.980 00:38:29 Yes
175 777 Victory Loft - NY 0146-AU17-NYLN BB H 1 08:43:38.25 23.901 00:38:44 Yes
176 Kibria Rpl - TX 0089-AU17-EISN BV H 2 08:43:39.94 23.892 00:38:45 Yes
177 Abel Loft - CA 7554-AU17-HAN BC H 2 08:44:06.27 23.750 00:39:12 Yes
178 Elton Dinga - TX 12075-AU17-AA MIL C 16 08:44:07.31 23.745 00:39:13 Yes
179 Racing Pigeon Mall - WA 0707-AU17-RPM BBWF C 2 08:44:31.00 23.619 00:39:36 Yes
180 Aok Loft - NE 0963-AU17-OMHA BB H 2 08:44:32.27 23.612 00:39:38 Yes
181 K & R Loft - TX 2930-AU17-TX DWFP H 2 08:44:58.78 23.473 00:40:04 Yes
182 Mlb Team - TX 2961-AU17-TEX BCWF H 1 08:45:02.39 23.454 00:40:08 Yes
183 Medina Loft - TX 0170-AU17-MDNA BB H 3 08:45:26.24 23.331 00:40:32 Yes
184 H & H Loft - TX 6950-AU17-VK BB H 6 08:45:27.47 23.324 00:40:33 Yes
185 T & T Lofts - TX 2090-AU17-TEX BB H 1 08:45:52.99 23.194 00:40:58 Yes
186 Relax & Barger - CA 0707-AU17-OBC BB H 1 08:45:54.14 23.188 00:41:00 Yes
187 Holleys Silver Star - TX 0944-AU17-DEN BBPD H 2 08:46:18.59 23.064 00:41:24 Yes
188 Alfonso Garcia - TX 0300-AU17-DAL BC H 2 08:46:46.49 22.924 00:41:52 Yes
189 Franco Loft - TX 0776-AU17-DEN SIL C 3 08:46:47.99 22.917 00:41:53 Yes
190 Sky King Loft - TX 16908-AU17-QS BB H 2 08:47:11.27 22.802 00:42:17 Yes
191 Two-Be-Won - NV 17157-AU17-TBW BWFP H 2 08:47:20.72 22.755 00:42:26 Yes
192 Milestone Loft - CA 0189-AU17-SD GRIZ H 1 08:47:37.42 22.673 00:42:43 Yes
193 Little Reata Loft - TX 17331-AU17-JETT BC C 2 08:47:45.45 22.634 00:42:51 Yes
194 Mlb Team - TX 2945-AU17-TEX BB H 2 08:47:56.75 22.580 00:43:02 Yes
195 Johnson/Mailhes Loft - LA 0158-AU17-LAF BC H 1 08:48:17.36 22.481 00:43:23 Yes
196 Cbs & Rick - OK 1204-AU17-CBS BC H 1 08:48:23.25 22.453 00:43:29 Yes
197 Gold Star Loft - CA 1293-AU17-STON RC C 3 08:48:39.83 22.374 00:43:45 Yes
198 K & R Loft - TX 2937-AU17-TX DC C 3 08:48:42.88 22.359 00:43:48 Yes
199 Mlb Team - TX 2932-AU17-TEX BWFP C 3 08:48:56.56 22.295 00:44:02 Yes
200 Hi-Cal Connection - CA 0867-AU17-HICA BB C 1 08:49:11.25 22.226 00:44:17 Yes

There are 1024 bird records

Note: These Race Results are unofficial and subject to change until verified by the Race Committee and declared final.